Time;durP1;ratioP1;P1;durP2;ratioP2;P2;SDS_P1;SDS_P2;PMS_P1;PMS_P2;Temp;Humidity;BMP_temperature;BMP_pressure;BME280_temperature;BME280_humidity;BME280_pressure;Samples;Min_cycle;Max_cycle;Signal;HPM_P1;HPM_P2
2021/11/08 00:00:24;;;;;;;13.08;7.33;;;;;;;7.31;79.09;99763.80;1735445;82;27316;-62
2021/11/08 00:02:51;;;;;;;8.75;6.08;;;;;;;7.32;79.17;99763.51;1734995;82;25473;-61
2021/11/08 00:05:18;;;;;;;11.08;6.60;;;;;;;7.31;79.13;99761.11;1735304;82;25507;-62
2021/11/08 00:07:49;;;;;;;14.98;7.17;;;;;;;7.29;79.24;99753.34;1735294;82;25627;-62
2021/11/08 00:10:15;;;;;;;;;;;;;;;7.31;79.65;99759.21;1734469;82;25528;-62
2021/11/08 00:12:42;;;;;;;12.63;6.95;;;;;;;7.29;79.42;99751.44;1727808;83;28074;-62
2021/11/08 00:15:11;;;;;;;13.13;7.15;;;;;;;7.27;79.31;99764.92;1727756;83;25688;-62
2021/11/08 00:20:13;;;;;;;11.88;6.80;;;;;;;7.26;79.33;99762.79;1648382;87;25923;-61
2021/11/08 00:22:40;;;;;;;14.00;7.45;;;;;;;7.26;79.70;99766.03;1647386;87;25543;-62
2021/11/08 00:25:08;;;;;;;11.88;7.30;;;;;;;7.23;79.79;99763.38;1647173;87;28023;-63
2021/11/08 00:27:36;;;;;;;12.40;7.42;;;;;;;7.23;79.69;99762.59;1647115;87;25673;-63
2021/11/08 00:30:04;;;;;;;11.75;7.40;;;;;;;7.21;79.71;99766.92;1688978;82;25553;-62
2021/11/08 00:32:31;;;;;;;13.90;6.58;;;;;;;7.19;79.83;99766.99;1750635;82;25636;-63
2021/11/08 00:34:58;;;;;;;15.43;8.08;;;;;;;7.17;79.59;99769.98;1750703;82;25458;-63
2021/11/08 00:37:24;;;;;;;13.40;7.70;;;;;;;7.16;80.08;99775.09;1750671;82;27972;-63
2021/11/08 00:39:52;;;;;;;11.50;7.25;;;;;;;7.15;79.88;99778.90;1750605;82;25610;-64
2021/11/08 00:42:18;;;;;;;13.28;7.65;;;;;;;7.16;79.90;99779.69;1750659;82;25573;-63
2021/11/08 00:44:45;;;;;;;12.63;7.28;;;;;;;7.16;79.83;99778.34;1750576;82;25972;-63
2021/11/08 00:47:13;;;;;;;13.08;7.15;;;;;;;7.14;80.10;99782.67;1750672;82;25707;-63
2021/11/08 00:49:41;;;;;;;11.55;7.10;;;;;;;7.14;80.01;99777.84;1750651;82;27533;-63
2021/11/08 00:52:09;;;;;;;13.28;7.45;;;;;;;7.15;80.32;99786.97;1750560;82;25679;-63
2021/11/08 00:54:35;;;;;;;16.93;7.58;;;;;;;7.13;80.68;99777.59;1750652;82;25720;-63
2021/11/08 00:57:03;;;;;;;13.38;7.28;;;;;;;7.09;80.94;99783.56;1774974;78;25811;-63
2021/11/08 00:59:30;;;;;;;14.65;7.90;;;;;;;7.04;80.87;99788.24;1813618;78;25664;-62
2021/11/08 01:01:58;;;;;;;14.80;7.92;;;;;;;7.01;81.21;99771.34;1838638;77;27322;-62
2021/11/08 01:04:25;;;;;;;19.73;8.98;;;;;;;6.97;82.27;99779.77;1836089;78;27124;-62
2021/11/08 01:06:58;;;;;;;17.25;7.92;;;;;;;6.94;81.74;99789.77;1836270;78;25383;-63
2021/11/08 01:09:23;;;;;;;13.10;8.33;;;;;;;6.90;81.92;99784.98;1835794;78;26768;-63
2021/11/08 01:11:49;;;;;;;16.32;8.00;;;;;;;6.86;82.13;99794.75;1839121;78;25444;-63
2021/11/08 01:14:17;;;;;;;12.80;8.00;;;;;;;6.86;82.36;99793.92;1839240;78;27298;-63
2021/11/08 01:16:45;;;;;;;15.08;8.55;;;;;;;6.83;82.95;99796.67;1839049;78;25537;-63
2021/11/08 01:19:14;;;;;;;18.60;9.23;;;;;;;6.80;82.75;99795.13;1839428;78;25459;-63
2021/11/08 01:21:41;;;;;;;11.20;7.78;;;;;;;6.77;82.83;99791.12;1839553;78;25622;-63
2021/11/08 01:24:09;;;;;;;12.80;8.05;;;;;;;6.76;83.31;99804.86;1816084;77;25432;-63
2021/11/08 01:26:36;;;;;;;14.33;8.43;;;;;;;6.74;83.25;99807.84;1839389;78;28024;-63
2021/11/08 01:29:03;;;;;;;14.93;8.03;;;;;;;6.72;83.20;99802.78;1840388;77;25550;-63
2021/11/08 01:31:30;;;;;;;12.58;7.85;;;;;;;6.72;83.20;99802.78;1842115;77;25430;-63
2021/11/08 01:33:57;;;;;;;12.80;7.67;;;;;;;6.72;83.43;99800.63;1842062;77;25557;-63
2021/11/08 01:36:34;;;;;;;12.55;8.55;;;;;;;6.71;83.98;99802.52;1842122;77;25417;-63
2021/11/08 01:39:04;;;;;;;13.50;7.92;;;;;;;6.73;83.47;99800.88;1841189;77;27623;-63
2021/11/08 01:41:27;;;;;;;12.78;7.60;;;;;;;6.75;83.78;99799.25;1840924;77;25436;-63
2021/11/08 01:43:55;;;;;;;14.73;8.35;;;;;;;6.73;83.41;99804.92;1842223;77;25435;-63
2021/11/08 01:46:22;;;;;;;14.30;8.48;;;;;;;6.75;84.28;99804.63;1842005;77;26186;-63
2021/11/08 01:48:50;;;;;;;17.17;8.08;;;;;;;6.77;83.61;99810.50;1842113;77;25572;-63
2021/11/08 01:51:17;;;;;;;17.57;8.28;;;;;;;6.78;83.65;99811.55;1842098;77;28030;-63
2021/11/08 01:53:46;;;;;;;14.05;8.38;;;;;;;6.78;83.63;99807.52;1841978;77;25664;-63
2021/11/08 01:56:12;;;;;;;12.98;7.65;;;;;;;6.79;83.50;99813.69;1842088;77;25605;-63
2021/11/08 01:58:39;;;;;;;15.45;8.53;;;;;;;6.80;83.61;99808.57;1842113;77;25638;-63
2021/11/08 02:01:08;;;;;;;15.13;7.95;;;;;;;6.80;83.83;99815.29;1842166;77;25436;-63
2021/11/08 02:03:35;;;;;;;13.25;7.28;;;;;;;6.80;83.51;99814.73;1842180;77;27294;-63
2021/11/08 02:06:02;;;;;;;15.70;7.53;;;;;;;6.80;83.50;99821.45;1842033;77;25613;-63
2021/11/08 02:08:29;;;;;;;14.87;7.87;;;;;;;6.80;83.79;99809.91;1842194;77;25431;-63
2021/11/08 02:10:57;;;;;;;13.53;8.48;;;;;;;6.79;83.46;99811.78;1840770;77;25606;-63
2021/11/08 02:13:25;;;;;;;12.03;8.15;;;;;;;6.80;83.62;99824.14;1840365;77;25352;-63
2021/11/08 02:15:52;;;;;;;15.75;8.38;;;;;;;6.80;83.62;99821.45;1842104;77;27299;-63
2021/11/08 02:18:21;;;;;;;18.32;8.38;;;;;;;6.81;83.58;99820.91;1842117;77;25647;-63
2021/11/08 02:20:51;;;;;;;15.68;8.40;;;;;;;6.81;83.63;99828.44;1842149;77;25545;-63
2021/11/08 02:23:20;;;;;;;15.60;8.48;;;;;;;6.83;83.61;99828.14;1842049;77;25597;-63
2021/11/08 02:25:49;;;;;;;13.70;8.65;;;;;;;6.83;83.42;99824.11;1842085;77;25622;-63
2021/11/08 02:28:17;;;;;;;13.93;8.15;;;;;;;6.85;83.37;99834.81;1842216;77;27286;-63
2021/11/08 02:30:46;;;;;;;16.67;9.18;;;;;;;6.87;83.36;99834.52;1841792;77;25440;-63
2021/11/08 02:33:16;;;;;;;13.50;8.23;;;;;;;6.90;83.44;99829.34;1841940;77;25555;-63
2021/11/08 02:35:44;;;;;;;13.78;8.20;;;;;;;6.90;83.67;99825.87;1841883;77;25606;-63
2021/11/08 02:38:24;;;;;;;15.78;9.13;;;;;;;6.89;83.33;99822.36;1841937;77;25594;-63
2021/11/08 02:40:50;;;;;;;12.85;8.65;;;;;;;6.89;83.74;99827.73;1840263;77;27332;-63
2021/11/08 02:43:25;;;;;;;16.53;9.47;;;;;;;6.89;83.48;99820.23;1842088;77;25549;-63
2021/11/08 02:46:03;;;;;;;12.55;8.78;;;;;;;6.89;83.66;99832.33;1841876;77;25466;-63
2021/11/08 02:48:26;;;;;;;16.45;8.25;;;;;;;6.89;83.46;99825.61;1841165;77;25749;-63
2021/11/08 02:50:56;;;;;;;15.00;9.23;;;;;;;6.89;83.48;99826.39;1841934;77;25449;-63
2021/11/08 02:53:23;;;;;;;17.25;8.33;;;;;;;6.90;83.60;99824.52;1841545;77;27894;-63
2021/11/08 02:55:52;;;;;;;14.25;8.83;;;;;;;6.90;83.37;99832.03;1841814;77;25538;-63
2021/11/08 02:58:19;;;;;;;12.60;8.67;;;;;;;6.91;83.59;99833.64;1842186;77;25435;-63
2021/11/08 03:00:46;;;;;;;13.75;8.55;;;;;;;6.92;83.87;99839.81;1841781;77;27739;-63
2021/11/08 03:03:13;;;;;;;18.25;9.50;;;;;;;6.91;83.53;99845.73;1841924;77;25610;-63
2021/11/08 03:05:40;;;;;;;13.70;9.25;;;;;;;6.92;83.74;99841.94;1841867;77;28064;-63
2021/11/08 03:08:09;;;;;;;17.17;9.10;;;;;;;6.91;83.91;99842.23;1841802;77;25585;-63
2021/11/08 03:10:40;;;;;;;16.70;9.18;;;;;;;6.91;84.22;99848.43;1833646;77;25538;-63
2021/11/08 03:13:15;;;;;;;14.58;9.80;;;;;;;6.90;84.04;99848.72;1844881;77;26401;-63
2021/11/08 03:18:10;;;;;;;13.95;9.10;;;;;;;6.92;83.94;99865.34;1841929;77;27384;-63
2021/11/08 03:20:34;;;;;;;12.58;8.68;;;;;;;6.93;83.83;99868.30;1840983;77;26006;-63
2021/11/08 03:23:05;;;;;;;13.87;8.33;;;;;;;6.94;84.03;99870.44;1842164;77;25434;-63
2021/11/08 03:27:59;;;;;;;13.65;9.13;;;;;;;6.95;84.07;99876.87;1841986;77;25671;-63
2021/11/08 03:30:41;;;;;;;17.85;8.85;;;;;;;6.97;83.95;99876.58;1841879;77;27383;-63
2021/11/08 03:32:58;;;;;;;15.98;8.78;;;;;;;6.98;83.87;99886.22;1836016;77;25812;-63
2021/11/08 03:35:26;;;;;;;16.37;9.33;;;;;;;6.97;83.84;99882.74;1841838;77;25372;-63
2021/11/08 03:37:56;;;;;;;20.52;9.78;;;;;;;6.98;83.96;99887.04;1841827;77;25507;-63
2021/11/08 03:40:31;;;;;;;17.42;10.00;;;;;;;6.99;83.93;99895.34;1841959;77;25377;-63
2021/11/08 03:43:00;;;;;;;14.63;8.60;;;;;;;6.98;83.87;99895.11;1841891;77;27202;-63
2021/11/08 03:45:30;;;;;;;17.30;8.85;;;;;;;7.00;83.93;99892.09;1809005;77;25544;-63
2021/11/08 03:47:58;;;;;;;17.37;9.08;;;;;;;7.00;83.82;99895.61;1841945;77;25537;-63
2021/11/08 03:50:27;;;;;;;17.12;9.18;;;;;;;7.02;83.73;99887.25;1841830;77;25558;-62
2021/11/08 03:52:54;;;;;;;15.18;8.90;;;;;;;7.02;83.80;99903.38;1841890;77;25416;-62
2021/11/08 03:55:21;;;;;;;15.53;9.78;;;;;;;7.02;84.10;99918.17;1841891;77;27234;-62
2021/11/08 03:57:51;;;;;;;15.58;9.23;;;;;;;7.00;84.08;99905.02;1841843;77;25612;-63
2021/11/08 04:00:21;;;;;;;15.58;9.83;;;;;;;7.01;83.89;99905.80;1841861;77;25383;-63
2021/11/08 04:02:49;;;;;;;15.90;9.63;;;;;;;7.02;83.95;99908.76;1841852;77;25629;-63
2021/11/08 04:05:19;;;;;;;16.12;9.55;;;;;;;7.01;84.05;99913.88;1841842;77;25613;-63
2021/11/08 04:07:47;;;;;;;18.98;9.43;;;;;;;7.00;84.20;99913.08;1841804;77;27392;-63
2021/11/08 04:10:16;;;;;;;17.45;9.20;;;;;;;7.00;84.28;99906.89;1841757;77;25427;-63
2021/11/08 04:12:44;;;;;;;17.75;8.95;;;;;;;6.99;84.12;99910.13;1801804;77;25525;-63
2021/11/08 04:15:16;;;;;;;18.00;10.03;;;;;;;6.99;84.20;99908.78;1800406;79;26274;-63
2021/11/08 04:17:45;;;;;;;16.65;9.90;;;;;;;6.99;84.40;99911.47;1773973;80;25552;-63
2021/11/08 04:20:19;;;;;;;20.40;10.53;;;;;;;6.98;84.58;99911.77;1801993;79;27315;-63
2021/11/08 04:22:49;;;;;;;19.73;10.70;;;;;;;6.96;84.89;99918.78;1773828;80;25600;-63
2021/11/08 04:25:17;;;;;;;15.43;10.40;;;;;;;6.95;84.67;99917.72;1802050;79;25520;-62
2021/11/08 04:27:45;;;;;;;16.52;10.43;;;;;;;6.94;84.75;99917.48;1773784;80;25564;-63
2021/11/08 04:30:13;;;;;;;12.20;10.05;;;;;;;6.92;84.88;99911.84;1801997;79;25374;-63
2021/11/08 04:32:52;;;;;;;16.15;10.30;;;;;;;6.91;85.05;99918.86;1801965;79;27311;-63
2021/11/08 04:35:39;;;;;;;13.25;9.95;;;;;;;6.90;85.47;99922.66;1769905;81;25403;-63
2021/11/08 04:38:13;;;;;;;14.13;10.13;;;;;;;6.87;85.19;99920.00;1799957;79;25565;-62
2021/11/08 04:40:43;;;;;;;17.07;10.18;;;;;;;6.86;85.19;99927.01;1768949;80;25682;-65
2021/11/08 04:50:53;;;;;;;15.75;10.72;;;;;;;6.87;85.32;99938.03;1770323;81;25426;-63
2021/11/08 04:56:13;;;;;;;14.53;10.03;;;;;;;6.88;85.19;99939.63;1770295;80;25748;-63
2021/11/08 05:27:49;;;;;;;17.40;11.18;;;;;;;7.00;84.98;99965.52;1675772;85;27350;-63
2021/11/08 05:30:39;;;;;;;14.60;10.53;;;;;;;6.95;85.27;99968.29;1675830;85;25501;-64
2021/11/08 05:33:05;;;;;;;17.37;11.50;;;;;;;6.92;85.33;99954.08;1675747;85;26263;-64
2021/11/08 05:35:33;;;;;;;16.40;10.28;;;;;;;6.90;85.24;99952.23;1675788;85;25621;-64
2021/11/08 05:38:05;;;;;;;18.75;10.35;;;;;;;6.90;85.56;99971.05;1675756;85;27909;-64
2021/11/08 05:40:32;;;;;;;16.48;9.93;;;;;;;6.89;85.10;99964.86;1675807;85;25858;-64
2021/11/08 05:43:06;;;;;;;14.68;10.32;;;;;;;6.89;85.10;99978.30;1675953;84;25734;-64
2021/11/08 05:45:33;;;;;;;16.95;9.75;;;;;;;6.92;85.06;99978.28;1675600;85;25649;-64
2021/11/08 05:48:05;;;;;;;15.45;9.85;;;;;;;6.90;84.95;99982.59;1675783;85;25593;-64
2021/11/08 05:50:34;;;;;;;16.15;9.23;;;;;;;6.93;84.85;99982.58;1675784;85;27337;-63
2021/11/08 05:53:03;;;;;;;13.88;9.03;;;;;;;6.94;84.71;99987.41;1675852;85;25520;-63
2021/11/08 05:55:56;;;;;;;15.60;9.73;;;;;;;6.95;84.73;99989.80;1675789;85;25637;-64
2021/11/08 06:49:56;;;;;;;12.55;8.38;;;;;;;7.05;83.69;100063.61;1633576;86;25807;-64
2021/11/08 06:52:24;;;;;;;15.83;8.00;;;;;;;7.04;83.82;100063.34;1650469;86;25789;-64
2021/11/08 06:54:51;;;;;;;13.38;8.25;;;;;;;7.03;83.68;100056.91;1648935;87;25776;-64
2021/11/08 06:57:19;;;;;;;14.93;8.23;;;;;;;7.01;83.75;100057.19;1648956;87;27429;-64
2021/11/08 06:59:48;;;;;;;15.50;8.00;;;;;;;7.03;83.86;100052.87;1648830;87;25684;-64
2021/11/08 07:02:17;;;;;;;14.10;8.23;;;;;;;7.04;84.03;100061.99;1649177;87;25538;-64
2021/11/08 07:04:44;;;;;;;14.73;7.78;;;;;;;7.05;84.05;100066.84;1649144;87;25673;-64
2021/11/08 07:07:11;;;;;;;15.93;9.35;;;;;;;7.06;84.07;100069.77;1649003;87;25524;-64
2021/11/08 07:09:39;;;;;;;15.68;9.68;;;;;;;7.04;84.61;100075.44;1649014;87;27889;-64
2021/11/08 07:12:08;;;;;;;15.23;9.25;;;;;;;7.02;84.63;100072.80;1648806;86;26174;-64
2021/11/08 07:14:35;;;;;;;13.83;8.80;;;;;;;7.01;84.93;100077.36;1712825;83;25461;-64
2021/11/08 07:17:02;;;;;;;18.65;9.70;;;;;;;6.98;84.89;100077.14;1712142;83;25796;-63
2021/11/08 07:19:29;;;;;;;17.07;9.90;;;;;;;6.97;85.00;100074.22;1712277;82;25642;-63
2021/11/08 07:21:56;;;;;;;15.85;9.73;;;;;;;6.96;85.51;100077.43;1712132;83;27532;-63
2021/11/08 07:24:23;;;;;;;16.50;10.60;;;;;;;6.94;85.37;100073.45;1752275;79;25721;-64
2021/11/08 07:26:49;;;;;;;16.27;10.05;;;;;;;6.91;85.85;100075.63;1828834;78;25452;-63
2021/11/08 07:29:16;;;;;;;18.80;10.28;;;;;;;6.88;85.95;100080.23;1777278;80;25718;-64
2021/11/08 07:31:44;;;;;;;49.88;21.15;;;;;;;6.88;86.41;100081.58;1822238;78;25696;-63
2021/11/08 07:34:11;;;;;;;30.70;15.32;;;;;;;6.89;86.12;100085.85;1799034;79;27357;-63
2021/11/08 07:36:39;;;;;;;20.15;10.98;;;;;;;6.91;86.34;100085.04;1806743;79;25696;-64
2021/11/08 07:39:07;;;;;;;20.75;11.28;;;;;;;6.93;86.47;100088.79;1807056;79;25440;-63
2021/11/08 07:41:34;;;;;;;19.48;11.12;;;;;;;6.94;86.56;100087.68;1806983;79;26331;-63
2021/11/08 07:44:01;;;;;;;20.92;10.78;;;;;;;6.97;86.67;100091.70;1786719;79;25457;-63
2021/11/08 07:46:27;;;;;;;16.48;10.25;;;;;;;6.98;86.71;100083.34;1812512;77;29407;-63
2021/11/08 07:48:54;;;;;;;17.32;10.08;;;;;;;7.02;86.43;100093.77;1783894;78;25684;-63
2021/11/08 07:51:21;;;;;;;14.45;9.15;;;;;;;7.06;86.44;100092.64;1835553;78;25432;-64
2021/11/08 07:53:49;;;;;;;17.75;9.40;;;;;;;7.09;86.40;100096.89;1831780;78;25870;-63
2021/11/08 07:56:15;;;;;;;15.40;9.83;;;;;;;7.11;86.07;100100.08;1831306;78;25428;-64
2021/11/08 07:58:43;;;;;;;15.55;9.58;;;;;;;7.15;85.91;100111.61;1830920;78;27363;-64
2021/11/08 08:01:10;;;;;;;14.35;8.50;;;;;;;7.19;86.02;100120.16;1831655;78;25636;-64
2021/11/08 08:03:37;;;;;;;14.28;7.72;;;;;;;7.21;85.67;100113.15;1831796;78;25635;-64
2021/11/08 08:06:06;;;;;;;15.72;8.78;;;;;;;7.23;85.38;100107.72;1831672;78;25670;-64
2021/11/08 08:08:34;;;;;;;18.50;8.13;;;;;;;7.28;85.40;100116.27;1777513;80;25697;-64
2021/11/08 08:11:03;;;;;;;16.10;8.38;;;;;;;7.32;85.38;100119.17;1831671;78;28041;-64
2021/11/08 08:13:33;;;;;;;11.12;7.87;;;;;;;7.35;85.21;100123.42;1852118;77;25626;-65
2021/11/08 08:16:04;;;;;;;19.67;7.92;;;;;;;7.38;85.16;100122.84;1858632;77;25413;-64
2021/11/08 08:18:33;;;;;;;12.75;7.00;;;;;;;7.40;85.05;100126.05;1858646;77;25857;-64
2021/11/08 08:21:01;;;;;;;13.85;7.78;;;;;;;7.41;84.88;100132.25;1858603;77;25634;-64
2021/11/08 08:23:28;;;;;;;10.28;6.90;;;;;;;7.41;84.71;100126.31;1858640;77;28010;-64
2021/11/08 08:25:55;;;;;;;19.35;7.47;;;;;;;7.43;84.74;100133.54;1858474;77;25675;-64
2021/11/08 08:28:22;;;;;;;8.73;6.50;;;;;;;7.46;84.71;100133.52;1858570;77;25634;-64
2021/11/08 08:30:49;;;;;;;15.65;8.33;;;;;;;7.49;84.64;100136.95;1858536;77;25678;-64
2021/11/08 08:33:17;;;;;;;16.73;8.75;;;;;;;7.54;84.56;100138.22;1788545;80;25447;-64
2021/11/08 08:35:44;;;;;;;10.00;6.35;;;;;;;7.53;84.42;100147.41;1852773;77;27980;-62
2021/11/08 08:38:16;;;;;;;10.48;7.12;;;;;;;7.54;84.30;100138.77;1788661;80;25542;-64
2021/11/08 08:40:43;;;;;;;12.10;7.30;;;;;;;7.54;84.45;100148.19;1852757;77;25827;-63
2021/11/08 08:43:10;;;;;;;10.82;7.42;;;;;;;7.54;84.47;100148.98;1788511;80;25607;-64
2021/11/08 08:45:37;;;;;;;9.10;6.87;;;;;;;7.57;84.47;100157.03;1852715;77;25685;-64
2021/11/08 08:48:08;;;;;;;11.40;7.55;;;;;;;7.60;84.64;100152.42;1852624;77;27314;-63
2021/11/08 08:50:35;;;;;;;11.95;7.17;;;;;;;7.62;84.59;100158.30;1848810;77;25825;-63
2021/11/08 08:53:02;;;;;;;12.45;8.23;;;;;;;7.64;84.58;100165.02;1836602;77;25603;-63
2021/11/08 08:55:29;;;;;;;12.58;8.30;;;;;;;7.64;84.41;100162.31;1836068;78;25638;-64
2021/11/08 08:57:57;;;;;;;14.47;8.20;;;;;;;7.65;84.45;100168.49;1840778;77;25776;-63
2021/11/08 09:00:25;;;;;;;8.55;7.37;;;;;;;7.63;84.47;100168.78;1839150;77;27033;-63
2021/11/08 09:02:55;;;;;;;15.75;8.85;;;;;;;7.65;84.54;100171.19;1835965;78;25656;-63
2021/11/08 09:05:22;;;;;;;;;;;;;;;7.65;84.72;100174.67;1838854;77;25659;-64
2021/11/08 09:07:51;;;;;;;11.12;7.30;;;;;;;7.67;84.82;100184.59;1835983;78;25728;-65
2021/11/08 09:10:19;;;;;;;10.93;7.92;;;;;;;7.65;85.17;100173.88;1836147;78;25594;-64
2021/11/08 09:12:45;;;;;;;12.15;8.18;;;;;;;7.64;85.09;100182.51;1825116;77;27856;-64
2021/11/08 09:15:12;;;;;;;9.75;7.92;;;;;;;7.67;85.49;100186.50;1802618;79;27228;-64
2021/11/08 09:17:40;;;;;;;13.53;8.73;;;;;;;7.66;85.49;100191.09;1802652;79;25662;-64
2021/11/08 09:20:09;;;;;;;12.45;8.70;;;;;;;7.65;85.58;100190.82;1802627;79;25605;-63
2021/11/08 09:22:37;;;;;;;27.80;16.17;;;;;;;7.66;85.63;100192.44;1804711;79;25625;-64
2021/11/08 09:25:06;;;;;;;15.43;9.20;;;;;;;7.68;85.84;100193.49;1805208;79;27417;-63
2021/11/08 09:27:32;;;;;;;11.30;8.68;;;;;;;7.65;85.89;100187.34;1772952;80;25718;-65
2021/11/08 09:29:59;;;;;;;10.18;8.28;;;;;;;7.64;85.92;100197.84;1772709;80;25692;-64
2021/11/08 09:32:25;;;;;;;10.85;9.05;;;;;;;7.63;86.25;100196.26;1768397;80;27974;-64
2021/11/08 09:34:52;;;;;;;17.45;8.78;;;;;;;7.58;86.42;100190.39;1774809;80;25765;-64
2021/11/08 09:37:19;;;;;;;10.20;8.53;;;;;;;7.59;86.56;100200.61;1755982;81;29560;-64
2021/11/08 09:39:47;;;;;;;14.58;9.43;;;;;;;7.56;86.29;100207.91;1756290;80;25722;-64
2021/11/08 09:42:16;;;;;;;14.45;9.63;;;;;;;7.51;86.64;100206.64;1756391;81;25715;-64
2021/11/08 09:44:44;;;;;;;12.18;8.83;;;;;;;7.50;86.77;100212.57;1756504;81;25751;-63
2021/11/08 09:47:14;;;;;;;9.88;8.88;;;;;;;7.50;86.96;100211.23;1751331;80;25759;-63
2021/11/08 09:49:44;;;;;;;;;;;;;;;7.48;87.56;100212.86;1737682;82;28093;-63
2021/11/08 09:52:11;;;;;;;;;;;;;;;7.46;87.15;100207.53;1732740;82;25734;-63
2021/11/08 09:54:40;;;;;;;10.85;7.67;;;;;;;7.46;87.41;100212.91;1730625;82;25489;-64
2021/11/08 09:57:08;;;;;;;10.82;7.92;;;;;;;7.45;87.66;100222.85;1730443;82;25721;-65
2021/11/08 09:59:35;;;;;;;10.15;8.43;;;;;;;7.47;87.71;100218.53;1766033;81;25691;-63
2021/11/08 10:02:06;;;;;;;14.33;8.28;;;;;;;7.50;87.85;100220.64;1769616;79;27317;-63
2021/11/08 10:04:33;;;;;;;9.30;7.95;;;;;;;7.50;87.99;100221.99;1768302;81;25753;-63
2021/11/08 10:06:59;;;;;;;8.55;7.55;;;;;;;7.50;87.83;100229.27;1769682;81;25686;-63
2021/11/08 10:09:26;;;;;;;12.40;8.00;;;;;;;7.51;87.86;100228.16;1769700;81;25979;-63
2021/11/08 10:11:53;;;;;;;11.20;7.97;;;;;;;7.56;87.95;100228.92;1767972;80;26273;-63
2021/11/08 10:14:20;;;;;;;10.98;8.48;;;;;;;7.58;87.83;100225.94;1773006;80;27957;-63
2021/11/08 10:16:51;;;;;;;9.98;8.18;;;;;;;7.63;87.93;100236.64;1774663;80;25414;-64
2021/11/08 10:19:26;;;;;;;11.15;8.18;;;;;;;7.64;87.89;100233.66;1774462;80;25669;-64
2021/11/08 10:21:56;;;;;;;12.82;8.48;;;;;;;7.64;87.70;100232.31;1774656;80;26532;-64
2021/11/08 10:24:30;;;;;;;10.88;7.53;;;;;;;7.66;87.73;100241.42;1774625;80;25669;-63
2021/11/08 10:27:01;;;;;;;13.30;7.58;;;;;;;7.66;87.83;100244.94;1774588;80;27397;-63
2021/11/08 10:29:29;;;;;;;9.40;7.92;;;;;;;7.66;87.80;100252.19;1774580;80;25679;-64
2021/11/08 10:32:01;;;;;;;8.25;7.33;;;;;;;7.67;87.88;100247.86;1774663;80;25682;-64
2021/11/08 10:34:29;;;;;;;11.50;8.15;;;;;;;7.69;88.20;100247.58;1774484;80;25711;-64
2021/11/08 10:37:03;;;;;;;9.73;7.45;;;;;;;7.75;88.32;100249.12;1774734;80;25637;-66
2021/11/08 10:39:36;;;;;;;12.60;8.00;;;;;;;7.77;88.33;100256.34;1768335;80;27345;-65
2021/11/08 10:42:05;;;;;;;10.35;7.67;;;;;;;7.78;88.26;100260.66;1761722;80;25763;-64
2021/11/08 10:44:33;;;;;;;10.00;7.10;;;;;;;7.79;88.31;100260.89;1769435;80;35336;-62
2021/11/08 10:47:11;;;;;;;11.38;8.18;;;;;;;7.78;88.19;100259.31;1731471;82;25761;-64
2021/11/08 10:49:43;;;;;;;9.55;7.50;;;;;;;7.79;88.25;100262.80;1743952;82;25694;-64
2021/11/08 10:52:14;;;;;;;9.88;7.47;;;;;;;7.79;88.44;100262.23;1744034;82;27974;-62
2021/11/08 10:54:45;;;;;;;9.98;8.23;;;;;;;7.80;88.80;100263.85;1770011;81;25554;-61
2021/11/08 10:57:19;;;;;;;10.48;7.65;;;;;;;7.84;88.82;100260.03;1773718;79;25572;-61
2021/11/08 10:59:50;;;;;;;11.25;9.03;;;;;;;7.89;88.84;100251.88;1801571;79;25609;-61
2021/11/08 11:02:22;;;;;;;9.83;7.85;;;;;;;7.95;89.13;100253.41;1801501;79;25578;-61
2021/11/08 11:04:57;;;;;;;10.18;7.45;;;;;;;8.01;88.98;100258.17;1802056;79;27324;-63
2021/11/08 11:07:27;;;;;;;10.82;8.25;;;;;;;8.01;88.69;100260.86;1801865;79;25576;-64
2021/11/08 11:10:05;;;;;;;9.90;8.00;;;;;;;8.00;88.53;100264.11;1801602;79;25730;-63
2021/11/08 11:12:31;;;;;;;8.60;7.53;;;;;;;8.00;88.34;100268.67;1801804;79;25669;-61
2021/11/08 11:15:09;;;;;;;12.78;8.83;;;;;;;7.98;88.21;100266.83;1849751;77;25669;-60
2021/11/08 11:17:55;;;;;;;14.10;9.13;;;;;;;7.99;88.29;100265.20;1850004;77;27429;-61
2021/11/08 11:20:25;;;;;;;10.78;8.03;;;;;;;8.04;88.41;100267.02;1849728;77;25675;-60
2021/11/08 11:23:16;;;;;;;12.63;8.43;;;;;;;8.11;88.60;100268.79;1850179;77;25644;-60
2021/11/08 11:25:53;;;;;;;13.32;8.75;;;;;;;8.15;88.20;100263.61;1849777;77;27728;-61
2021/11/08 11:28:40;;;;;;;13.72;7.62;;;;;;;8.12;87.84;100273.09;1849134;77;25615;-60
2021/11/08 11:31:22;;;;;;;12.47;8.15;;;;;;;8.09;87.53;100268.81;1839033;77;27347;-63
2021/11/08 11:33:54;;;;;;;10.95;8.03;;;;;;;8.10;87.83;100267.18;1840862;77;25648;-64
2021/11/08 11:36:23;;;;;;;9.60;7.65;;;;;;;8.13;88.08;100270.64;1841330;77;25397;-65
2021/11/08 11:39:01;;;;;;;15.35;8.68;;;;;;;8.15;87.93;100269.00;1841346;77;25835;-65
2021/11/08 11:41:35;;;;;;;10.95;8.23;;;;;;;8.13;87.64;100269.30;1841167;77;25708;-65
2021/11/08 11:44:21;;;;;;;14.30;8.68;;;;;;;8.13;87.54;100271.98;1841061;77;27361;-64
2021/11/08 11:46:53;;;;;;;10.38;9.08;;;;;;;8.12;87.42;100275.80;1840108;77;25449;-65
2021/11/08 11:49:21;;;;;;;11.83;8.28;;;;;;;8.09;87.36;100271.51;1841312;77;25366;-64
2021/11/08 11:51:52;;;;;;;13.05;9.05;;;;;;;8.04;87.18;100277.80;1841114;77;25678;-65
2021/11/08 11:54:25;;;;;;;9.75;8.65;;;;;;;8.01;87.35;100277.81;1840951;77;25846;-64
2021/11/08 11:56:54;;;;;;;10.45;7.80;;;;;;;8.01;87.45;100279.16;1841268;77;27309;-65
2021/11/08 11:59:22;;;;;;;10.00;7.85;;;;;;;8.02;87.52;100284.81;1841150;77;25592;-65
2021/11/08 12:01:50;;;;;;;13.30;9.13;;;;;;;8.05;87.64;100280.72;1840884;77;25600;-65
2021/11/08 12:04:17;;;;;;;8.98;7.53;;;;;;;8.07;87.82;100287.99;1841181;77;25630;-66
2021/11/08 12:06:47;;;;;;;8.68;6.90;;;;;;;8.07;87.98;100277.22;1841287;77;25743;-66
2021/11/08 12:09:19;;;;;;;8.53;6.80;;;;;;;8.08;88.00;100287.44;1840921;77;27974;-64
2021/11/08 12:11:49;;;;;;;11.43;6.75;;;;;;;8.07;87.83;100292.55;1841060;77;25676;-66
2021/11/08 12:14:22;;;;;;;;;;;;;;;8.07;88.09;100293.38;1842423;77;25534;-65
2021/11/08 12:17:10;;;;;;;8.88;5.67;;;;;;;8.09;88.24;100295.75;1840518;77;26325;-66
2021/11/08 12:19:40;;;;;;;11.78;7.60;;;;;;;8.07;88.30;100295.25;1841303;77;25652;-66
2021/11/08 12:22:20;;;;;;;11.18;7.12;;;;;;;8.10;88.49;100298.72;1841105;77;27352;-65
2021/11/08 12:25:01;;;;;;;8.60;6.70;;;;;;;8.12;88.32;100304.08;1840939;77;25691;-65
2021/11/08 12:27:46;;;;;;;9.40;6.25;;;;;;;8.14;88.39;100299.20;1840261;77;25742;-64
2021/11/08 12:30:26;;;;;;;10.65;8.50;;;;;;;8.15;88.45;100305.37;1841249;77;26323;-64
2021/11/08 12:32:57;;;;;;;9.53;7.67;;;;;;;8.12;88.27;100305.43;1779533;80;25608;-64
2021/11/08 12:35:33;;;;;;;8.48;7.10;;;;;;;8.16;88.34;100308.34;1781003;80;27291;-65
2021/11/08 12:38:01;;;;;;;11.50;7.75;;;;;;;8.13;88.16;100301.63;1780931;80;25612;-65
2021/11/08 12:40:32;;;;;;;9.83;7.03;;;;;;;8.12;88.17;100316.73;1780829;80;25790;-65
2021/11/08 12:43:00;;;;;;;10.00;7.47;;;;;;;8.06;87.93;100314.66;1776123;80;25757;-65
2021/11/08 12:45:31;;;;;;;9.85;7.72;;;;;;;8.04;87.98;100315.51;1770041;80;25793;-65
2021/11/08 12:48:07;;;;;;;9.78;7.67;;;;;;;7.99;88.09;100305.59;1771987;80;27382;-65
2021/11/08 12:50:45;;;;;;;9.80;7.58;;;;;;;8.01;88.19;100310.70;1771721;80;25667;-66
2021/11/08 12:53:46;;;;;;;9.73;6.78;;;;;;;8.03;88.49;100323.32;1770602;80;25783;-65
2021/11/08 12:56:29;;;;;;;9.48;7.83;;;;;;;7.99;88.33;100323.11;1769268;80;25674;-65
2021/11/08 12:58:59;;;;;;;10.58;7.67;;;;;;;7.97;88.66;100324.50;1770114;80;25813;-65
2021/11/08 13:01:48;;;;;;;14.20;8.68;;;;;;;7.96;88.81;100316.16;1741627;80;27303;-64
2021/11/08 13:04:18;;;;;;;10.72;8.03;;;;;;;7.99;89.15;100329.05;1734939;82;26050;-64
2021/11/08 13:06:47;;;;;;;13.60;8.93;;;;;;;7.96;89.16;100330.41;1738536;82;25820;-64
2021/11/08 13:09:22;;;;;;;12.03;8.93;;;;;;;7.94;89.09;100333.16;1747817;79;26565;-65
2021/11/08 13:11:55;;;;;;;11.93;9.50;;;;;;;7.94;89.31;100333.16;1808028;79;25685;-66
2021/11/08 13:14:34;;;;;;;13.65;9.53;;;;;;;7.91;89.18;100345.30;1813489;78;27410;-65
2021/11/08 13:17:12;;;;;;;13.05;9.60;;;;;;;7.92;89.74;100350.16;1814903;78;25688;-65
2021/11/08 13:19:53;;;;;;;14.53;10.40;;;;;;;7.91;89.53;100344.50;1806626;79;25625;-65